Weather at El Sheikh Gebeil Airport

Public forecast

Using degrees Celsius for public forecast. Weather courtesy of forecast.io.

Closest aviation weather report (METAR) to El Sheikh Gebeil Airport

Closest report is Ismailia Air Base, 29.5 nm (54.6 km) E.

2024/05/28 12:00 (retrieved 1 hour ago)

HEIS 281200Z 33008KT CAVOK 32/17 Q1012

Closest aviation forecast (TAF) to El Sheikh Gebeil Airport

Closest forecast is Cairo International Airport, 32.2 nm (59.6 km) SSW.

2024/05/28 12:57 (retrieved 8 minutes ago)

TAF HECA 281100Z 2812/2918 33006KT CAVOK TEMPO 2816/2820 04014G28KT